createdAt,value
2023-02-17T00:00:57.006Z,14.20
2023-02-17T00:03:24.355Z,14.30
2023-02-17T00:05:51.448Z,12.84
2023-02-17T00:08:17.822Z,13.92
2023-02-17T00:10:44.304Z,14.14
2023-02-17T00:13:10.699Z,14.34
2023-02-17T00:15:40.425Z,13.90
2023-02-17T00:18:06.920Z,13.54
2023-02-17T00:20:33.398Z,13.61
2023-02-17T00:22:59.766Z,13.73
2023-02-17T00:25:26.160Z,13.22
2023-02-17T00:27:52.511Z,13.33
2023-02-17T00:30:19.116Z,13.85
2023-02-17T00:32:45.549Z,13.91
2023-02-17T00:35:11.968Z,13.60
2023-02-17T00:37:38.461Z,13.32
2023-02-17T00:40:05.441Z,13.18
2023-02-17T00:42:31.854Z,13.99
2023-02-17T00:44:58.222Z,13.97
2023-02-17T00:47:24.562Z,14.16
2023-02-17T00:49:52.112Z,14.20
2023-02-17T00:52:18.561Z,13.93
2023-02-17T00:54:44.902Z,14.10
2023-02-17T00:57:11.296Z,13.80
2023-02-17T00:59:37.703Z,14.00
2023-02-17T01:02:04.337Z,13.08
2023-02-17T01:04:31.379Z,13.75
2023-02-17T01:06:57.870Z,12.86
2023-02-17T01:09:25.066Z,13.68
2023-02-17T01:11:51.635Z,13.58
2023-02-17T01:14:18.292Z,13.54
2023-02-17T01:16:48.175Z,14.04
2023-02-17T01:19:18.100Z,14.33
2023-02-17T01:21:45.372Z,13.54
2023-02-17T01:24:12.779Z,12.70
2023-02-17T01:26:41.391Z,14.06
2023-02-17T01:29:09.897Z,13.48
2023-02-17T01:31:36.977Z,13.36
2023-02-17T01:34:04.691Z,14.01
2023-02-17T01:36:32.006Z,13.79
2023-02-17T01:39:01.580Z,13.82
2023-02-17T01:41:28.798Z,13.59
2023-02-17T01:44:05.587Z,14.31
2023-02-17T01:46:34.238Z,14.25
2023-02-17T01:49:03.228Z,14.12
2023-02-17T01:51:33.889Z,13.79
2023-02-17T01:54:07.771Z,13.63
2023-02-17T01:56:38.416Z,13.20
2023-02-17T01:59:10.541Z,13.84
2023-02-17T02:01:37.444Z,14.02
2023-02-17T02:04:06.269Z,13.94
2023-02-17T02:06:36.196Z,13.75
2023-02-17T02:09:10.979Z,13.70
2023-02-17T02:11:37.824Z,13.41
2023-02-17T02:14:08.007Z,14.05
2023-02-17T02:16:45.413Z,14.09
2023-02-17T02:19:22.900Z,13.85
2023-02-17T02:22:05.301Z,14.38
2023-02-17T02:24:51.512Z,13.98
2023-02-17T02:27:34.248Z,14.26
2023-02-17T02:30:24.171Z,14.27
2023-02-17T02:32:59.937Z,13.42
2023-02-17T02:35:50.887Z,13.48
2023-02-17T02:39:02.986Z,14.22
2023-02-17T02:41:39.753Z,13.18
2023-02-17T02:44:09.695Z,13.44
2023-02-17T02:46:36.648Z,14.30
2023-02-17T02:49:04.287Z,14.12
2023-02-17T02:51:38.815Z,14.24
2023-02-17T02:54:26.504Z,13.98
2023-02-17T02:57:12.527Z,13.70
2023-02-17T02:59:48.071Z,14.03
2023-02-17T03:02:44.618Z,14.09
2023-02-17T03:05:21.601Z,13.91
2023-02-17T03:07:59.812Z,13.69
2023-02-17T03:10:26.417Z,13.86
2023-02-17T03:12:52.749Z,14.32
2023-02-17T03:15:26.046Z,14.08
2023-02-17T03:17:52.386Z,14.08
2023-02-17T03:20:18.908Z,13.98
2023-02-17T03:22:48.108Z,13.88
2023-02-17T03:25:15.541Z,13.82
2023-02-17T03:27:42.576Z,13.23
2023-02-17T03:30:10.163Z,14.21
2023-02-17T03:32:36.684Z,13.95
2023-02-17T03:35:03.873Z,13.61
2023-02-17T03:37:30.769Z,13.48
2023-02-17T03:39:57.353Z,13.11
2023-02-17T03:42:23.976Z,13.53
2023-02-17T03:44:50.487Z,12.85
2023-02-17T03:47:16.952Z,13.81
2023-02-17T03:49:43.458Z,14.21
2023-02-17T03:52:10.269Z,14.32
2023-02-17T03:54:37.932Z,14.42
2023-02-17T03:57:04.416Z,14.08
2023-02-17T03:59:31.141Z,13.94
2023-02-17T04:01:57.549Z,14.27
2023-02-17T04:04:24.069Z,13.96
2023-02-17T04:06:50.555Z,13.67
2023-02-17T04:09:17.180Z,13.29
2023-02-17T04:11:43.700Z,13.88
2023-02-17T04:14:10.524Z,13.34
2023-02-17T04:16:39.082Z,14.30
2023-02-17T04:19:06.916Z,14.03
2023-02-17T04:21:33.850Z,13.54
2023-02-17T04:24:01.755Z,12.74
2023-02-17T04:26:28.694Z,14.13
2023-02-17T04:28:55.118Z,14.10
2023-02-17T04:31:21.797Z,14.22
2023-02-17T04:33:48.478Z,14.28
2023-02-17T04:36:14.956Z,14.26
2023-02-17T04:38:41.372Z,14.08
2023-02-17T04:41:07.921Z,14.02
2023-02-17T04:43:34.421Z,13.41
2023-02-17T04:46:00.932Z,14.35
2023-02-17T04:48:27.363Z,14.07
2023-02-17T04:50:53.748Z,13.58
2023-02-17T04:53:20.689Z,14.21
2023-02-17T04:55:52.574Z,13.98
2023-02-17T04:58:19.697Z,14.07
2023-02-17T05:00:47.998Z,14.27
2023-02-17T05:03:14.403Z,14.28
2023-02-17T05:05:40.785Z,13.66
2023-02-17T05:08:07.192Z,14.17
2023-02-17T05:10:33.602Z,14.06
2023-02-17T05:13:00.001Z,14.18
2023-02-17T05:15:26.707Z,13.11
2023-02-17T05:17:53.043Z,13.86
2023-02-17T05:20:19.605Z,14.17
2023-02-17T05:22:45.991Z,13.92
2023-02-17T05:25:12.344Z,13.82
2023-02-17T05:27:38.808Z,13.65
2023-02-17T05:30:06.424Z,14.03
2023-02-17T05:32:33.056Z,13.87
2023-02-17T05:34:59.502Z,14.13
2023-02-17T05:37:26.868Z,14.03
2023-02-17T05:39:53.249Z,13.86
2023-02-17T05:42:19.604Z,13.78
2023-02-17T05:44:45.953Z,13.55
2023-02-17T05:47:12.352Z,13.71
2023-02-17T05:49:38.886Z,13.96
2023-02-17T05:52:05.232Z,13.69
2023-02-17T05:54:31.660Z,13.91
2023-02-17T05:56:58.018Z,13.68
2023-02-17T05:59:24.612Z,13.88
2023-02-17T06:01:50.980Z,14.00
2023-02-17T06:04:17.407Z,13.79
2023-02-17T06:06:44.873Z,13.97
2023-02-17T06:09:18.316Z,13.37
2023-02-17T06:11:44.791Z,12.84
2023-02-17T06:14:11.226Z,13.97
2023-02-17T06:16:37.762Z,13.35
2023-02-17T06:19:05.187Z,14.09
2023-02-17T06:21:31.983Z,13.67
2023-02-17T06:23:58.349Z,13.86
2023-02-17T06:26:24.953Z,14.07
2023-02-17T06:28:53.988Z,13.96
2023-02-17T06:31:20.700Z,13.12
2023-02-17T06:33:47.471Z,13.95
2023-02-17T06:36:13.952Z,13.40
2023-02-17T06:38:40.377Z,13.69
2023-02-17T06:41:06.766Z,13.12
2023-02-17T06:43:33.203Z,13.78
2023-02-17T06:45:59.684Z,13.36
2023-02-17T06:48:26.146Z,14.07
2023-02-17T06:50:52.689Z,13.31
2023-02-17T06:53:19.197Z,13.40
2023-02-17T06:55:45.583Z,13.66
2023-02-17T06:58:12.685Z,13.05
2023-02-17T07:00:39.153Z,13.97
2023-02-17T07:03:06.618Z,13.27
2023-02-17T07:05:37.688Z,14.19
2023-02-17T07:08:07.759Z,13.63
2023-02-17T07:10:34.469Z,13.82
2023-02-17T07:13:00.890Z,13.83
2023-02-17T07:15:27.279Z,13.23
2023-02-17T07:17:53.637Z,13.81
2023-02-17T07:20:22.588Z,13.51
2023-02-17T07:22:49.002Z,13.35
2023-02-17T07:25:15.514Z,13.86
2023-02-17T07:27:41.992Z,13.15
2023-02-17T07:30:08.933Z,13.87
2023-02-17T07:32:35.628Z,13.75
2023-02-17T07:35:02.280Z,13.86
2023-02-17T07:37:34.617Z,13.22
2023-02-17T07:40:01.152Z,14.02
2023-02-17T07:42:28.405Z,13.77
2023-02-17T07:44:58.046Z,13.05
2023-02-17T07:47:24.495Z,13.23
2023-02-17T07:49:53.383Z,13.17
2023-02-17T07:52:22.542Z,13.41
2023-02-17T07:54:48.975Z,13.81
2023-02-17T07:57:16.645Z,13.70
2023-02-17T07:59:46.535Z,13.86
2023-02-17T08:02:14.979Z,12.92
2023-02-17T08:04:43.655Z,12.83
2023-02-17T08:07:10.275Z,14.11
2023-02-17T08:09:55.308Z,13.60
2023-02-17T08:12:40.505Z,13.18
2023-02-17T08:15:09.396Z,14.35
2023-02-17T08:17:36.221Z,14.24
2023-02-17T08:20:08.729Z,14.31
2023-02-17T08:22:36.100Z,14.28
2023-02-17T08:25:02.759Z,14.38
2023-02-17T08:27:29.226Z,14.43
2023-02-17T08:30:01.189Z,13.87
2023-02-17T08:32:27.634Z,14.26
2023-02-17T08:34:59.362Z,13.38
2023-02-17T08:37:26.008Z,14.64
2023-02-17T08:39:54.879Z,13.62
2023-02-17T08:42:21.540Z,14.22
2023-02-17T08:44:47.920Z,14.03
2023-02-17T08:47:16.692Z,14.74
2023-02-17T08:49:45.533Z,14.49
2023-02-17T08:52:12.032Z,14.66
2023-02-17T08:54:41.154Z,14.35
2023-02-17T08:57:07.544Z,13.86
2023-02-17T08:59:33.995Z,14.88
2023-02-17T09:02:02.657Z,14.97
2023-02-17T09:04:31.696Z,14.40
2023-02-17T09:06:58.376Z,14.87
2023-02-17T09:09:29.277Z,15.01
2023-02-17T09:12:02.627Z,14.07
2023-02-17T09:14:29.132Z,14.55
2023-02-17T09:16:57.869Z,14.99
2023-02-17T09:19:31.603Z,14.41
2023-02-17T09:22:01.117Z,14.84
2023-02-17T09:24:28.679Z,14.55
2023-02-17T09:26:57.399Z,14.64
2023-02-17T09:29:23.779Z,14.51
2023-02-17T09:31:50.441Z,15.05
2023-02-17T09:34:16.945Z,14.86
2023-02-17T09:36:45.513Z,15.27
2023-02-17T09:39:14.058Z,14.86
2023-02-17T09:41:50.148Z,15.22
2023-02-17T09:44:27.053Z,15.22
2023-02-17T09:47:05.537Z,15.31
2023-02-17T09:49:57.103Z,15.25
2023-02-17T09:52:37.517Z,15.47
2023-02-17T09:55:07.137Z,15.37
2023-02-17T09:58:28.297Z,15.01
2023-02-17T10:00:58.207Z,15.19
2023-02-17T10:03:31.051Z,15.41
2023-02-17T10:06:15.312Z,15.36
2023-02-17T10:09:03.104Z,15.92
2023-02-17T10:11:44.097Z,15.52
2023-02-17T10:14:28.706Z,15.91
2023-02-17T10:16:59.925Z,16.08
2023-02-17T10:19:38.773Z,15.77
2023-02-17T10:22:16.131Z,15.94
2023-02-17T10:24:42.936Z,16.04
2023-02-17T10:27:41.787Z,16.33
2023-02-17T10:30:35.226Z,16.17
2023-02-17T10:33:20.564Z,16.36
2023-02-17T10:35:58.981Z,16.11
2023-02-17T10:38:53.206Z,16.36
2023-02-17T10:41:38.556Z,16.33
2023-02-17T10:44:21.110Z,16.18
2023-02-17T10:46:50.683Z,15.87
2023-02-17T10:49:37.437Z,15.62
2023-02-17T10:52:43.162Z,16.44
2023-02-17T10:55:36.974Z,16.28
2023-02-17T10:58:50.146Z,16.09
2023-02-17T11:01:17.281Z,15.97
2023-02-17T11:03:44.245Z,15.20
2023-02-17T11:06:18.852Z,16.24
2023-02-17T11:09:00.585Z,15.98
2023-02-17T11:11:32.409Z,15.83
2023-02-17T11:14:09.441Z,15.99
2023-02-17T11:16:41.582Z,16.45
2023-02-17T11:19:21.824Z,16.52
2023-02-17T11:21:51.226Z,16.72
2023-02-17T11:24:18.300Z,17.11
2023-02-17T11:26:58.647Z,17.13
2023-02-17T11:29:25.483Z,17.05
2023-02-17T11:31:55.058Z,17.33
2023-02-17T11:34:25.227Z,17.40
2023-02-17T11:37:05.926Z,17.60
2023-02-17T11:39:38.862Z,17.65
2023-02-17T11:42:26.370Z,17.13
2023-02-17T11:44:56.132Z,17.68
2023-02-17T11:47:38.649Z,18.58
2023-02-17T11:50:11.190Z,17.69
2023-02-17T11:53:04.400Z,17.59
2023-02-17T11:56:08.922Z,17.24
2023-02-17T11:58:46.898Z,16.92
2023-02-17T12:01:47.459Z,17.19
2023-02-17T12:04:23.887Z,17.11
2023-02-17T12:07:30.290Z,17.28
2023-02-17T12:10:14.682Z,17.34
2023-02-17T12:13:08.143Z,17.52
2023-02-17T12:16:21.567Z,17.84
2023-02-17T12:19:01.820Z,17.27
2023-02-17T12:21:39.677Z,17.85
2023-02-17T12:24:19.400Z,18.69
2023-02-17T12:27:06.004Z,18.75
2023-02-17T12:29:53.632Z,19.26
2023-02-17T12:32:41.757Z,18.88
2023-02-17T12:35:15.302Z,18.44
2023-02-17T12:37:58.319Z,18.70
2023-02-17T12:40:37.685Z,18.59
2023-02-17T12:43:27.445Z,18.67
2023-02-17T12:45:58.051Z,19.06
2023-02-17T12:48:39.809Z,18.05
2023-02-17T12:51:19.261Z,18.21
2023-02-17T12:54:01.110Z,18.66
2023-02-17T12:56:39.788Z,18.60
2023-02-17T12:59:20.401Z,19.11
2023-02-17T13:01:52.630Z,18.56
2023-02-17T13:04:24.566Z,17.80
2023-02-17T13:06:59.691Z,17.67
2023-02-17T13:09:40.825Z,17.37
2023-02-17T13:12:23.250Z,17.73
2023-02-17T13:14:51.523Z,18.16
2023-02-17T13:17:51.898Z,17.18
2023-02-17T13:20:18.234Z,17.91
2023-02-17T13:22:45.579Z,17.54
2023-02-17T13:25:37.038Z,17.88
2023-02-17T13:28:38.392Z,17.29
2023-02-17T13:31:17.762Z,17.52
2023-02-17T13:33:54.380Z,17.99
2023-02-17T13:36:32.918Z,18.04
2023-02-17T13:39:03.726Z,17.93
2023-02-17T13:41:44.358Z,18.09
2023-02-17T13:44:40.290Z,17.17
2023-02-17T13:47:24.806Z,17.97
2023-02-17T13:49:57.087Z,16.91
2023-02-17T13:52:26.472Z,17.95
2023-02-17T13:54:55.291Z,17.74
2023-02-17T13:57:29.128Z,17.93
2023-02-17T14:00:13.805Z,18.05
2023-02-17T14:02:48.676Z,18.33
2023-02-17T14:05:45.538Z,18.14
2023-02-17T14:08:44.164Z,17.82
2023-02-17T14:11:22.866Z,17.55
2023-02-17T14:13:51.893Z,18.13
2023-02-17T14:16:34.417Z,17.55
2023-02-17T14:19:10.870Z,17.22
2023-02-17T14:21:41.047Z,17.68
2023-02-17T14:24:22.003Z,17.61
2023-02-17T14:26:49.485Z,17.49
2023-02-17T14:29:25.786Z,16.85
2023-02-17T14:31:53.543Z,16.61
2023-02-17T14:34:28.402Z,16.91
2023-02-17T14:36:55.582Z,16.77
2023-02-17T14:39:22.404Z,17.11
2023-02-17T14:41:48.854Z,16.80
2023-02-17T14:44:15.455Z,17.21
2023-02-17T14:46:42.032Z,16.12
2023-02-17T14:49:08.466Z,17.12
2023-02-17T14:51:37.511Z,16.94
2023-02-17T14:54:13.931Z,16.22
2023-02-17T14:57:06.101Z,16.30
2023-02-17T14:59:32.765Z,15.87
2023-02-17T15:01:59.879Z,16.63
2023-02-17T15:04:26.488Z,15.91
2023-02-17T15:06:54.695Z,16.51
2023-02-17T15:09:28.981Z,16.20
2023-02-17T15:11:56.190Z,16.42
2023-02-17T15:14:22.608Z,16.26
2023-02-17T15:16:49.336Z,16.14
2023-02-17T15:19:17.981Z,15.65
2023-02-17T15:21:47.635Z,16.72
2023-02-17T15:24:16.992Z,16.25
2023-02-17T15:26:43.562Z,15.18
2023-02-17T15:29:19.180Z,15.77
2023-02-17T15:31:47.199Z,16.02
2023-02-17T15:34:16.406Z,16.43
2023-02-17T15:36:43.249Z,16.28
2023-02-17T15:39:16.237Z,15.56
2023-02-17T15:41:44.891Z,15.66
2023-02-17T15:44:24.357Z,15.82
2023-02-17T15:46:53.391Z,15.75
2023-02-17T15:49:20.504Z,15.10
2023-02-17T15:51:46.986Z,15.93
2023-02-17T15:54:13.432Z,15.54
2023-02-17T15:56:44.068Z,15.77
2023-02-17T15:59:16.354Z,15.72
2023-02-17T16:01:43.073Z,15.30
2023-02-17T16:04:14.546Z,15.60
2023-02-17T16:06:41.212Z,14.83
2023-02-17T16:09:08.736Z,15.13
2023-02-17T16:11:38.559Z,15.34
2023-02-17T16:14:05.706Z,14.86
2023-02-17T16:16:33.484Z,15.26
2023-02-17T16:19:00.827Z,15.15
2023-02-17T16:21:27.672Z,14.67
2023-02-17T16:23:58.967Z,15.44
2023-02-17T16:26:34.775Z,14.17
2023-02-17T16:29:03.650Z,14.92
2023-02-17T16:31:32.359Z,14.78
2023-02-17T16:34:00.290Z,14.72
2023-02-17T16:36:32.087Z,14.58
2023-02-17T16:39:00.525Z,14.54
2023-02-17T16:41:28.563Z,14.89
2023-02-17T16:43:55.434Z,14.34
2023-02-17T16:46:31.166Z,14.64
2023-02-17T16:49:04.649Z,14.72
2023-02-17T16:51:31.093Z,14.55
2023-02-17T16:53:57.471Z,13.96
2023-02-17T16:56:37.442Z,15.42
2023-02-17T16:59:04.787Z,14.40
2023-02-17T17:01:32.173Z,14.82
2023-02-17T17:03:58.548Z,15.06
2023-02-17T17:06:28.894Z,15.39
2023-02-17T17:08:56.046Z,14.67
2023-02-17T17:11:25.328Z,14.58
2023-02-17T17:13:52.484Z,14.87
2023-02-17T17:16:21.714Z,15.23
2023-02-17T17:18:48.316Z,15.34
2023-02-17T17:21:17.233Z,15.20
2023-02-17T17:23:46.260Z,15.21
2023-02-17T17:26:20.258Z,15.53
2023-02-17T17:28:48.999Z,15.26
2023-02-17T17:31:16.154Z,15.19
2023-02-17T17:33:42.704Z,15.30
2023-02-17T17:36:14.622Z,14.80
2023-02-17T17:38:41.114Z,14.89
2023-02-17T17:41:11.880Z,14.92
2023-02-17T17:43:38.303Z,14.81
2023-02-17T17:46:22.805Z,14.82
2023-02-17T17:48:49.257Z,14.82
2023-02-17T17:51:18.815Z,15.26
2023-02-17T17:53:45.576Z,15.03
2023-02-17T17:56:22.465Z,14.92
2023-02-17T17:58:49.696Z,15.25
2023-02-17T18:01:17.186Z,14.84
2023-02-17T18:03:43.627Z,14.79
2023-02-17T18:06:15.996Z,14.76
2023-02-17T18:08:45.016Z,15.24
2023-02-17T18:11:14.506Z,14.52
2023-02-17T18:13:42.010Z,15.34
2023-02-17T18:16:08.888Z,15.36
2023-02-17T18:18:36.808Z,15.17
2023-02-17T18:21:03.242Z,15.23
2023-02-17T18:23:29.649Z,14.80
2023-02-17T18:25:56.068Z,14.91
2023-02-17T18:28:22.528Z,15.20
2023-02-17T18:30:49.275Z,15.30
2023-02-17T18:33:15.789Z,15.40
2023-02-17T18:35:44.056Z,15.46
2023-02-17T18:38:10.497Z,15.09
2023-02-17T18:40:41.157Z,15.40
2023-02-17T18:43:08.593Z,14.40
2023-02-17T18:45:35.634Z,14.67
2023-02-17T18:48:02.192Z,14.58
2023-02-17T18:50:32.884Z,15.26
2023-02-17T18:53:00.308Z,14.91
2023-02-17T18:55:26.935Z,14.60
2023-02-17T18:57:54.089Z,14.55
2023-02-17T19:00:24.586Z,13.95
2023-02-17T19:02:51.087Z,14.98
2023-02-17T19:05:17.561Z,14.96
2023-02-17T19:07:44.263Z,13.76
2023-02-17T19:10:11.471Z,14.50
2023-02-17T19:12:37.982Z,14.03
2023-02-17T19:15:05.479Z,14.57
2023-02-17T19:17:32.021Z,14.82
2023-02-17T19:19:58.553Z,14.74
2023-02-17T19:22:24.933Z,13.95
2023-02-17T19:24:53.985Z,14.93
2023-02-17T19:27:20.938Z,14.42
2023-02-17T19:29:47.359Z,14.68
2023-02-17T19:32:13.954Z,14.19
2023-02-17T19:34:40.452Z,14.43
2023-02-17T19:37:09.350Z,14.60
2023-02-17T19:39:36.054Z,14.56
2023-02-17T19:42:03.230Z,14.16
2023-02-17T19:44:31.221Z,14.24
2023-02-17T19:46:59.165Z,14.32
2023-02-17T19:49:33.013Z,14.05
2023-02-17T19:51:59.401Z,13.72
2023-02-17T19:54:25.852Z,13.98
2023-02-17T19:56:52.636Z,14.48
2023-02-17T19:59:19.203Z,15.08
2023-02-17T20:01:45.793Z,14.09
2023-02-17T20:04:14.687Z,14.99
2023-02-17T20:06:44.357Z,15.08
2023-02-17T20:09:15.628Z,14.35
2023-02-17T20:11:43.251Z,14.49
2023-02-17T20:14:11.092Z,13.86
2023-02-17T20:16:41.134Z,14.57
2023-02-17T20:19:07.905Z,14.52
2023-02-17T20:21:38.556Z,14.14
2023-02-17T20:24:05.573Z,14.56
2023-02-17T20:26:37.561Z,14.58
2023-02-17T20:29:04.384Z,14.22
2023-02-17T20:31:31.942Z,14.82
2023-02-17T20:34:02.879Z,14.59
2023-02-17T20:36:29.316Z,14.68
2023-02-17T20:38:55.692Z,14.93
2023-02-17T20:41:22.980Z,14.54
2023-02-17T20:43:50.986Z,14.51
2023-02-17T20:46:24.793Z,14.65
2023-02-17T20:48:51.868Z,14.62
2023-02-17T20:51:20.004Z,14.80
2023-02-17T20:53:54.846Z,14.21
2023-02-17T20:56:23.893Z,14.21
2023-02-17T20:58:51.877Z,14.57
2023-02-17T21:01:19.841Z,14.82
2023-02-17T21:03:47.039Z,14.47
2023-02-17T21:06:21.644Z,14.42
2023-02-17T21:08:53.517Z,14.57
2023-02-17T21:11:22.509Z,14.18
2023-02-17T21:13:49.281Z,14.65
2023-02-17T21:16:18.709Z,14.49
2023-02-17T21:18:46.908Z,14.40
2023-02-17T21:21:14.159Z,14.55
2023-02-17T21:23:40.690Z,14.61
2023-02-17T21:26:12.237Z,13.85
2023-02-17T21:28:39.305Z,14.06
2023-02-17T21:31:06.451Z,13.41
2023-02-17T21:33:33.744Z,14.29
2023-02-17T21:36:05.477Z,14.23
2023-02-17T21:38:32.058Z,14.41
2023-02-17T21:41:11.578Z,14.46
2023-02-17T21:43:57.759Z,14.66
2023-02-17T21:46:24.736Z,14.50
2023-02-17T21:48:53.728Z,13.67
2023-02-17T21:51:20.512Z,13.74
2023-02-17T21:53:48.186Z,14.38
2023-02-17T21:56:17.163Z,13.45
2023-02-17T21:58:47.657Z,14.62
2023-02-17T22:01:26.855Z,14.55
2023-02-17T22:03:54.055Z,14.22
2023-02-17T22:06:24.326Z,14.32
2023-02-17T22:08:51.348Z,14.29
2023-02-17T22:11:24.549Z,14.29
2023-02-17T22:13:55.280Z,13.94
2023-02-17T22:16:22.458Z,14.09
2023-02-17T22:18:49.614Z,13.59
2023-02-17T22:21:16.237Z,13.89
2023-02-17T22:23:45.653Z,14.49
2023-02-17T22:26:19.662Z,13.11
2023-02-17T22:28:46.494Z,14.31
2023-02-17T22:31:14.975Z,14.48
2023-02-17T22:33:42.093Z,13.60
2023-02-17T22:36:15.337Z,13.36
2023-02-17T22:38:44.161Z,13.81
2023-02-17T22:41:12.941Z,13.23
2023-02-17T22:46:38.004Z,13.66
2023-02-17T22:49:04.976Z,14.45
2023-02-17T22:51:37.645Z,14.61
2023-02-17T22:54:05.286Z,13.53
2023-02-17T22:56:32.581Z,14.31
2023-02-17T22:59:01.500Z,13.63
2023-02-17T23:01:30.641Z,14.15
2023-02-17T23:03:57.161Z,14.09
2023-02-17T23:06:29.744Z,14.65
2023-02-17T23:08:56.496Z,14.47
2023-02-17T23:11:44.975Z,14.58
2023-02-17T23:14:13.258Z,14.51
2023-02-17T23:16:40.494Z,14.54
2023-02-17T23:19:09.404Z,14.40
2023-02-17T23:21:36.506Z,14.50
2023-02-17T23:24:03.560Z,14.54
2023-02-17T23:26:30.153Z,13.93
2023-02-17T23:28:56.577Z,14.44
2023-02-17T23:31:23.047Z,13.56
2023-02-17T23:33:49.468Z,13.91
2023-02-17T23:36:16.302Z,14.37
2023-02-17T23:38:45.586Z,14.26
2023-02-17T23:41:12.013Z,13.98
2023-02-17T23:43:38.461Z,13.61
2023-02-17T23:46:05.257Z,13.68
2023-02-17T23:48:31.772Z,13.62
2023-02-17T23:51:04.352Z,14.17
2023-02-17T23:53:31.453Z,14.48
2023-02-17T23:56:33.924Z,14.36
2023-02-17T23:59:01.249Z,13.95
